Time;durP1;ratioP1;P1;durP2;ratioP2;P2;SDS_P1;SDS_P2;PMS_P1;PMS_P2;Temp;Humidity;BMP_temperature;BMP_pressure;BME280_temperature;BME280_humidity;BME280_pressure;Samples;Min_cycle;Max_cycle;Signal;HPM_P1;HPM_P2
2022/11/05 00:09:28;;;;;;;0.97;0.97;;;9.10;99.90;9.90;101324.00;;;;4910595;29;20244;-72
2022/11/05 00:17:43;;;;;;;1.27;1.27;;;8.80;99.90;8.60;101366.00;;;;4974456;28;20572;-71
2022/11/05 00:20:15;;;;;;;8.50;3.17;;;8.60;99.90;8.40;101361.00;;;;4906370;29;20195;-72
2022/11/05 00:26:13;;;;;;;0.40;0.40;;;8.30;99.90;8.10;101369.00;;;;4916873;29;20257;-71
2022/11/05 00:29:35;;;;;;;0.63;0.63;;;8.20;99.90;8.60;101382.00;;;;4885644;29;20204;-72
2022/11/05 00:35:35;;;;;;;11.77;11.03;;;8.40;99.90;8.30;101392.00;;;;4954594;29;20764;-71
2022/11/05 00:38:22;;;;;;;1.00;1.00;;;8.30;99.90;7.90;101357.00;;;;4916362;29;20244;-71
2022/11/05 00:45:14;;;;;;;2.00;0.60;;;8.20;99.90;8.30;101411.00;;;;4915301;29;20202;-72
2022/11/05 00:50:35;;;;;;;0.50;0.50;;;8.20;99.90;7.50;101418.00;;;;4950948;28;20196;-71
2022/11/05 00:53:47;;;;;;;1.83;1.73;;;8.00;99.90;8.00;101420.00;;;;4993143;28;20221;-72
2022/11/05 00:56:25;;;;;;;0.83;0.83;;;7.90;99.90;7.70;101418.00;;;;4938442;28;20284;-71
2022/11/05 00:59:05;;;;;;;0.47;0.47;;;7.90;99.90;7.70;101421.00;;;;4993256;28;20273;-71
2022/11/05 01:02:03;;;;;;;0.40;0.40;;;7.80;99.90;8.00;101423.00;;;;4976569;28;20212;-71
2022/11/05 01:05:04;;;;;;;0.67;0.67;;;7.80;99.90;8.30;101420.00;;;;4992975;28;20296;-71
2022/11/05 01:07:32;;;;;;;0.83;0.83;;;8.00;99.90;8.00;101423.00;;;;4974121;28;20210;-71
2022/11/05 01:10:07;;;;;;;0.60;0.60;;;8.00;99.90;8.20;101430.00;;;;4976916;28;20224;-71
2022/11/05 01:13:23;;;;;;;0.50;0.50;;;8.00;99.90;8.30;101375.00;;;;4960222;28;20762;-72
2022/11/05 01:16:14;;;;;;;0.60;0.60;;;8.00;99.90;7.80;101422.00;;;;5027147;28;20198;-71
2022/11/05 01:19:35;;;;;;;0.83;0.83;;;7.90;99.90;8.00;101429.00;;;;5030371;28;20230;-71
2022/11/05 01:23:03;;;;;;;0.70;0.70;;;7.80;99.90;8.10;101416.00;;;;4989175;28;20205;-72
2022/11/05 01:25:47;;;;;;;1.10;1.00;;;8.00;99.90;8.50;101417.00;;;;4976482;28;20263;-72
2022/11/05 01:28:21;;;;;;;0.50;0.50;;;8.10;99.90;8.00;101408.00;;;;4976118;28;20283;-71
2022/11/05 01:30:57;;;;;;;0.80;0.80;;;8.00;99.90;8.30;101413.00;;;;4992221;28;20202;-72
2022/11/05 01:33:28;;;;;;;0.60;0.60;;;7.90;99.90;8.50;101398.00;;;;4975932;28;20688;-72
2022/11/05 01:36:17;;;;;;;0.60;0.60;;;8.10;99.90;8.50;101405.00;;;;4992040;28;20666;-72
2022/11/05 01:38:46;;;;;;;0.60;0.60;;;8.20;99.90;8.40;101347.00;;;;4976053;28;20183;-72
2022/11/05 01:41:43;;;;;;;0.70;0.70;;;8.20;99.90;8.40;101389.00;;;;5004203;28;20199;-72
2022/11/05 01:45:03;;;;;;;0.73;0.73;;;8.10;99.90;8.30;101396.00;;;;5033007;28;20179;-72
2022/11/05 01:48:33;;;;;;;0.80;0.80;;;8.00;99.90;8.30;101392.00;;;;5016599;28;20220;-71
2022/11/05 01:51:35;;;;;;;0.60;0.60;;;8.00;99.90;8.40;101406.00;;;;5017230;28;20201;-71
2022/11/05 01:54:26;;;;;;;0.80;0.80;;;8.00;99.90;8.30;101407.00;;;;5040408;28;20202;-71
2022/11/05 01:57:14;;;;;;;0.60;0.60;;;8.10;99.90;8.30;101356.00;;;;5065702;28;20232;-71
2022/11/05 02:00:11;;;;;;;0.60;0.60;;;8.00;99.90;8.40;101401.00;;;;5032502;28;20261;-71
2022/11/05 02:03:06;;;;;;;0.60;0.60;;;8.00;99.90;8.00;101413.00;;;;5031069;28;20209;-71
2022/11/05 02:06:17;;;;;;;0.50;0.50;;;7.80;99.90;7.60;101408.00;;;;5030950;28;20202;-71
2022/11/05 02:09:26;;;;;;;0.70;0.70;;;7.70;99.90;7.90;101355.00;;;;5004854;28;20605;-71
2022/11/05 02:12:28;;;;;;;0.70;0.70;;;7.60;99.90;7.80;101413.00;;;;5029308;28;20217;-71
2022/11/05 02:15:06;;;;;;;0.70;0.70;;;7.60;99.90;7.90;101403.00;;;;5031592;28;20299;-71
2022/11/05 02:17:58;;;;;;;0.60;0.60;;;7.70;99.90;7.80;101401.00;;;;5032314;28;20201;-71
2022/11/05 02:24:27;;;;;;;0.90;0.90;;;7.60;99.90;8.10;101415.00;;;;5017480;28;20226;-71
2022/11/05 02:27:42;;;;;;;0.87;0.87;;;7.50;99.90;8.50;101427.00;;;;5032097;28;20198;-71
2022/11/05 02:31:09;;;;;;;0.60;0.60;;;7.80;99.90;8.20;101415.00;;;;5032993;28;20187;-71
2022/11/05 02:34:53;;;;;;;0.50;0.50;;;7.80;99.90;8.70;101410.00;;;;5032441;28;20658;-71
2022/11/05 02:38:00;;;;;;;1.33;1.27;;;7.90;99.90;8.60;101399.00;;;;5033344;28;20181;-70
2022/11/05 02:41:34;;;;;;;0.60;0.60;;;8.10;99.90;8.40;101361.00;;;;5032160;28;20189;-72
2022/11/05 02:45:09;;;;;;;0.60;0.60;;;8.00;99.90;7.60;101414.00;;;;4972026;28;20266;-71
2022/11/05 02:47:56;;;;;;;0.60;0.60;;;7.60;99.90;7.80;101418.00;;;;5032788;28;20182;-72
2022/11/05 02:51:27;;;;;;;0.60;0.60;;;7.50;99.90;7.70;101420.00;;;;5031691;28;20251;-71
2022/11/05 02:55:27;;;;;;;0.60;0.60;;;7.50;99.90;8.00;101418.00;;;;5031682;28;20198;-72
2022/11/05 02:58:25;;;;;;;0.57;0.57;;;7.60;99.90;7.60;101417.00;;;;4952489;29;20207;-72
2022/11/05 03:01:23;;;;;;;0.80;0.80;;;7.50;99.90;7.30;101411.00;;;;4936765;29;20283;-72
2022/11/05 03:04:28;;;;;;;0.90;0.90;;;7.30;99.90;7.80;101420.00;;;;4932625;29;20212;-72
2022/11/05 03:07:37;;;;;;;0.60;0.60;;;7.40;99.90;8.00;101420.00;;;;4937105;29;20200;-72
2022/11/05 03:10:36;;;;;;;1.50;1.50;;;7.70;99.90;8.10;101412.00;;;;4895456;29;20230;-73
2022/11/05 03:14:06;;;;;;;3.20;1.27;;;7.80;99.90;7.30;101417.00;;;;4895665;29;20253;-72
2022/11/05 03:17:39;;;;;;;0.57;0.57;;;7.60;99.90;7.50;101425.00;;;;4895430;29;20197;-74
2022/11/05 03:20:25;;;;;;;0.47;0.47;;;7.40;99.90;7.50;101413.00;;;;4884349;29;20274;-72
2022/11/05 03:23:58;;;;;;;0.60;0.60;;;7.40;99.90;7.80;101422.00;;;;4993887;28;20211;-72
2022/11/05 03:27:11;;;;;;;0.50;0.50;;;7.40;99.90;7.90;101409.00;;;;4955970;29;20213;-70
2022/11/05 03:30:33;;;;;;;2.23;2.03;;;7.60;99.90;7.30;101397.00;;;;4940398;29;20186;-71
2022/11/05 03:33:38;;;;;;;0.57;0.57;;;7.50;99.90;7.90;101421.00;;;;4955967;29;20213;-71
2022/11/05 03:36:59;;;;;;;0.57;0.57;;;7.50;99.90;8.10;101408.00;;;;4898393;29;20208;-71
2022/11/05 03:39:47;;;;;;;2.10;1.13;;;7.70;99.90;7.70;101412.00;;;;4885130;29;20195;-71
2022/11/05 03:45:36;;;;;;;0.67;0.67;;;7.60;99.90;8.20;101417.00;;;;4954319;29;20194;-71
2022/11/05 03:48:51;;;;;;;0.60;0.60;;;7.80;99.90;8.50;101423.00;;;;5010017;28;20282;-72
2022/11/05 03:52:00;;;;;;;0.50;0.50;;;8.00;99.90;8.10;101413.00;;;;5025059;28;20198;-72
2022/11/05 03:54:52;;;;;;;0.60;0.60;;;8.00;99.90;8.90;101376.00;;;;5032276;28;20197;-72
2022/11/05 03:58:07;;;;;;;0.60;0.60;;;8.30;99.90;9.10;101415.00;;;;5017388;28;20195;-73
2022/11/05 04:00:47;;;;;;;1.57;1.53;;;8.40;99.90;9.00;101355.00;;;;5066916;28;20179;-72
2022/11/05 04:03:40;;;;;;;0.60;0.60;;;8.50;99.90;8.80;101373.00;;;;5034794;28;20229;-73
2022/11/05 04:13:25;;;;;;;0.50;0.50;;;8.40;99.90;8.40;101358.00;;;;5033985;28;20241;-71
2022/11/05 04:25:27;;;;;;;0.60;0.60;;;8.60;99.90;8.90;101423.00;;;;5034508;28;20206;-72
2022/11/05 04:28:05;;;;;;;0.60;0.60;;;8.60;99.90;9.10;101391.00;;;;5034119;28;20190;-72
2022/11/05 04:31:06;;;;;;;0.60;0.60;;;8.70;99.90;9.00;101407.00;;;;5035187;28;20187;-71
2022/11/05 04:34:07;;;;;;;0.60;0.60;;;8.70;99.90;8.90;101407.00;;;;5034252;28;20204;-71
2022/11/05 04:36:58;;;;;;;0.47;0.47;;;8.70;99.90;8.50;101427.00;;;;5013109;28;20215;-72
2022/11/05 04:39:56;;;;;;;0.50;0.50;;;8.50;99.90;8.60;101417.00;;;;4939350;29;20201;-72
2022/11/05 04:43:03;;;;;;;0.40;0.40;;;8.50;99.90;8.70;101436.00;;;;4938715;29;20206;-72
2022/11/05 04:46:25;;;;;;;0.90;0.90;;;8.40;99.90;8.70;101391.00;;;;4961149;28;20591;-72
2022/11/05 04:49:06;;;;;;;0.50;0.50;;;8.50;99.90;9.00;101427.00;;;;4935417;29;20195;-71
2022/11/05 04:52:04;;;;;;;0.50;0.50;;;8.60;99.90;9.40;101428.00;;;;4919727;29;20202;-72
2022/11/05 04:54:31;;;;;;;0.50;0.50;;;8.80;99.90;9.40;101434.00;;;;4930055;29;20205;-72
2022/11/05 04:57:08;;;;;;;1.50;1.50;;;8.80;99.90;9.80;101437.00;;;;4919345;29;20213;-72
2022/11/05 05:00:09;;;;;;;0.60;0.60;;;9.00;99.90;9.10;101432.00;;;;4919272;29;20345;-72
2022/11/05 05:03:23;;;;;;;1.27;1.27;;;8.90;99.90;8.10;101433.00;;;;4932858;29;20230;-71
2022/11/05 05:05:58;;;;;;;0.50;0.50;;;8.40;99.90;8.20;101426.00;;;;4922850;28;20276;-72
2022/11/05 05:08:38;;;;;;;0.50;0.50;;;8.30;99.90;8.40;101430.00;;;;4995482;28;20662;-72
2022/11/05 05:12:01;;;;;;;0.50;0.50;;;8.20;99.90;8.20;101441.00;;;;5013435;28;20176;-72
2022/11/05 05:14:56;;;;;;;0.40;0.40;;;8.10;99.90;8.00;101429.00;;;;5012468;28;20551;-72
2022/11/05 05:17:59;;;;;;;0.40;0.40;;;8.00;99.90;8.50;101435.00;;;;5012668;28;20262;-72
2022/11/05 05:23:37;;;;;;;0.50;0.50;;;8.30;99.90;8.80;101434.00;;;;5014446;28;20666;-71
2022/11/05 05:26:58;;;;;;;0.50;0.50;;;8.40;99.90;8.80;101426.00;;;;5013466;28;20188;-71
2022/11/05 05:30:16;;;;;;;0.70;0.70;;;8.40;99.90;8.60;101434.00;;;;4992431;28;20565;-71
2022/11/05 05:32:53;;;;;;;0.50;0.50;;;8.20;99.90;8.00;101428.00;;;;4939612;28;20249;-71
2022/11/05 05:35:42;;;;;;;0.50;0.50;;;7.90;99.90;7.70;101428.00;;;;4976174;28;20246;-71
2022/11/05 05:38:25;;;;;;;1.23;1.23;;;7.80;99.90;8.20;101435.00;;;;4976510;28;20633;-73
2022/11/05 05:41:03;;;;;;;0.50;0.50;;;7.80;99.90;8.00;101435.00;;;;5007450;28;20230;-71
2022/11/05 05:44:05;;;;;;;0.40;0.40;;;7.70;99.90;8.00;101441.00;;;;5012553;28;20203;-72
2022/11/05 05:46:48;;;;;;;0.83;0.83;;;7.70;99.90;7.80;101451.00;;;;5013032;28;20290;-71
2022/11/05 05:49:35;;;;;;;0.60;0.60;;;7.70;99.90;7.70;101462.00;;;;5013351;28;20183;-72
2022/11/05 05:52:19;;;;;;;0.43;0.43;;;7.60;99.90;7.70;101466.00;;;;5012741;28;20301;-71
2022/11/05 05:55:07;;;;;;;0.50;0.50;;;7.50;99.90;7.30;101450.00;;;;4995800;28;20202;-71
2022/11/05 05:57:51;;;;;;;0.47;0.47;;;7.40;99.90;7.10;101457.00;;;;5013407;28;20179;-70
2022/11/05 06:01:30;;;;;;;0.40;0.40;;;7.30;99.90;7.10;101468.00;;;;5014036;28;20213;-71
2022/11/05 06:04:12;;;;;;;0.40;0.40;;;7.20;99.90;7.20;101474.00;;;;4937263;29;20727;-71
2022/11/05 06:07:01;;;;;;;0.40;0.40;;;7.20;99.90;7.50;101476.00;;;;4938267;29;20607;-72
2022/11/05 06:09:36;;;;;;;1.87;1.77;;;7.20;99.90;7.10;101474.00;;;;4959000;28;20202;-72
2022/11/05 06:12:31;;;;;;;1.00;1.00;;;7.20;99.90;7.30;101469.00;;;;4975351;28;20285;-71
2022/11/05 06:15:38;;;;;;;0.80;0.80;;;7.20;99.90;7.40;101474.00;;;;4953498;28;20244;-72
2022/11/05 06:18:06;;;;;;;0.80;0.80;;;7.30;99.90;7.40;101460.00;;;;5001229;28;20195;-72
2022/11/05 06:20:32;;;;;;;0.43;0.43;;;7.30;99.90;7.30;101415.00;;;;5013674;28;20172;-72
2022/11/05 06:23:01;;;;;;;0.53;0.53;;;7.30;99.90;7.50;101472.00;;;;5017878;28;20221;-72
2022/11/05 06:25:36;;;;;;;0.40;0.40;;;7.30;99.90;7.40;101452.00;;;;5015516;28;20206;-72
2022/11/05 06:28:07;;;;;;;0.40;0.40;;;7.30;99.90;7.50;101470.00;;;;5015352;28;20254;-72
2022/11/05 06:31:11;;;;;;;0.60;0.60;;;7.40;99.90;7.70;101491.00;;;;5033299;28;20178;-72
2022/11/05 06:33:58;;;;;;;0.40;0.40;;;7.40;99.90;8.00;101477.00;;;;5032933;28;20287;-72
2022/11/05 06:36:48;;;;;;;0.60;0.60;;;7.60;99.90;7.80;101471.00;;;;5031813;28;20205;-72
2022/11/05 06:39:23;;;;;;;0.60;0.60;;;7.60;99.90;7.70;101483.00;;;;5031659;28;20639;-72
2022/11/05 06:42:03;;;;;;;1.53;1.47;;;7.60;99.90;7.80;101473.00;;;;5012231;28;20183;-72
2022/11/05 06:44:51;;;;;;;0.50;0.50;;;7.60;99.90;7.50;101483.00;;;;4995245;28;20207;-72
2022/11/05 06:47:20;;;;;;;0.50;0.50;;;7.40;99.90;7.40;101480.00;;;;5013392;28;20194;-72
2022/11/05 06:50:21;;;;;;;0.40;0.40;;;7.30;99.90;7.20;101481.00;;;;5012079;28;20222;-72
2022/11/05 06:53:00;;;;;;;1.37;1.37;;;7.20;99.90;7.40;101489.00;;;;5019621;28;20299;-72
2022/11/05 06:55:30;;;;;;;0.50;0.50;;;7.30;99.90;8.10;101493.00;;;;5019006;28;20633;-72
2022/11/05 06:58:21;;;;;;;1.13;1.07;;;7.50;99.90;7.80;101492.00;;;;5035974;28;20213;-71
2022/11/05 07:00:53;;;;;;;0.57;0.57;;;7.60;99.90;7.70;101494.00;;;;5019557;28;20196;-72
2022/11/05 07:03:28;;;;;;;0.50;0.50;;;7.50;99.90;7.70;101432.00;;;;5035885;28;20186;-72
2022/11/05 07:06:34;;;;;;;0.50;0.50;;;7.50;99.90;7.40;101443.00;;;;5052421;28;20184;-72
2022/11/05 07:09:23;;;;;;;0.50;0.50;;;7.30;99.90;7.30;101507.00;;;;5034591;28;20226;-72
2022/11/05 07:12:18;;;;;;;0.50;0.50;;;7.30;99.90;7.40;101501.00;;;;5052143;28;20245;-72
2022/11/05 07:15:24;;;;;;;0.50;0.50;;;7.30;99.90;7.70;101509.00;;;;5036502;28;20664;-72
2022/11/05 07:18:18;;;;;;;0.50;0.50;;;7.40;99.90;7.70;101493.00;;;;5036635;28;20180;-72
2022/11/05 07:20:53;;;;;;;0.60;0.60;;;7.50;99.90;7.40;101444.00;;;;5035434;28;20173;-72
2022/11/05 07:23:21;;;;;;;0.60;0.60;;;7.30;99.90;7.60;101506.00;;;;5035405;28;20228;-72
2022/11/05 07:26:10;;;;;;;0.57;0.57;;;7.30;99.90;7.60;101495.00;;;;5035148;28;20257;-72
2022/11/05 07:29:04;;;;;;;0.60;0.60;;;7.30;99.90;7.70;101511.00;;;;5035477;28;20549;-72
2022/11/05 07:31:47;;;;;;;0.60;0.60;;;7.40;99.90;7.20;101453.00;;;;5035379;28;20186;-72
2022/11/05 07:34:27;;;;;;;1.23;1.23;;;7.30;99.90;7.20;101506.00;;;;5035009;28;20183;-71
2022/11/05 07:36:53;;;;;;;0.50;0.50;;;7.20;99.90;7.20;101511.00;;;;5034751;28;20201;-72
2022/11/05 07:39:57;;;;;;;0.47;0.47;;;7.20;99.90;7.30;101505.00;;;;5035186;28;20173;-72
2022/11/05 07:43:03;;;;;;;0.60;0.60;;;7.20;99.90;7.30;101505.00;;;;5035504;28;20190;-72
2022/11/05 07:45:41;;;;;;;0.50;0.50;;;7.40;99.90;7.40;101518.00;;;;5035297;28;20529;-72
2022/11/05 07:48:09;;;;;;;0.90;0.90;;;7.40;99.90;7.70;101519.00;;;;5034979;28;20195;-72
2022/11/05 07:50:55;;;;;;;0.50;0.50;;;7.50;99.90;7.80;101520.00;;;;5035919;28;20198;-72
2022/11/05 07:53:29;;;;;;;0.50;0.50;;;7.50;99.90;8.00;101525.00;;;;5034694;28;20635;-72
2022/11/05 07:56:14;;;;;;;1.30;1.30;;;7.60;99.90;7.40;101519.00;;;;5035910;28;20174;-72
2022/11/05 07:59:07;;;;;;;0.80;0.80;;;7.60;99.90;7.90;101531.00;;;;5034708;28;20195;-71
2022/11/05 08:01:44;;;;;;;2.63;1.33;;;7.60;99.90;8.30;101531.00;;;;5034655;28;20182;-72
2022/11/05 08:04:13;;;;;;;0.50;0.50;;;7.90;99.90;8.50;101524.00;;;;5035393;28;20646;-72
2022/11/05 08:06:41;;;;;;;1.00;1.00;;;8.00;99.90;8.00;101517.00;;;;5035618;28;20206;-72
2022/11/05 08:09:08;;;;;;;0.87;0.87;;;8.00;99.90;8.60;101513.00;;;;5034663;28;20261;-71
2022/11/05 08:11:34;;;;;;;0.47;0.47;;;8.20;99.90;8.40;101517.00;;;;5034436;28;20187;-71
2022/11/05 08:14:00;;;;;;;0.97;0.70;;;8.30;99.90;8.20;101493.00;;;;5035385;28;20194;-71
2022/11/05 08:16:32;;;;;;;0.77;0.77;;;8.30;99.90;8.70;101524.00;;;;5034120;28;20179;-72
2022/11/05 08:19:06;;;;;;;0.43;0.43;;;8.50;99.90;8.40;101511.00;;;;5017855;28;20258;-71
2022/11/05 08:22:32;;;;;;;2.70;2.10;;;8.50;99.90;8.60;101452.00;;;;5034270;28;20175;-72
2022/11/05 08:25:41;;;;;;;1.37;1.37;;;8.60;99.90;9.00;101520.00;;;;5035391;28;20184;-72
2022/11/05 08:28:36;;;;;;;0.50;0.50;;;8.70;99.90;9.50;101510.00;;;;5017606;28;20184;-72
2022/11/05 08:31:29;;;;;;;0.57;0.50;;;8.90;99.90;8.60;101512.00;;;;5033416;28;20685;-72
2022/11/05 08:34:11;;;;;;;0.60;0.60;;;8.70;99.90;8.40;101456.00;;;;5035147;28;20519;-72
2022/11/05 08:37:14;;;;;;;0.30;0.30;;;8.60;99.90;8.80;101516.00;;;;5034994;28;20183;-72
2022/11/05 08:40:33;;;;;;;0.33;0.33;;;8.50;99.90;8.90;101509.00;;;;5033950;28;20203;-72
2022/11/05 08:43:28;;;;;;;1.13;1.13;;;8.80;99.90;8.70;101516.00;;;;5033751;28;20187;-72
2022/11/05 08:46:00;;;;;;;2.57;2.47;;;8.80;99.90;8.50;101520.00;;;;5033522;28;20191;-72
2022/11/05 08:48:28;;;;;;;0.80;0.80;;;8.70;99.90;8.50;101459.00;;;;5033694;28;20273;-74
2022/11/05 08:51:02;;;;;;;0.77;0.77;;;8.70;99.90;8.70;101515.00;;;;5034163;28;20187;-74
2022/11/05 08:53:51;;;;;;;1.03;0.67;;;8.70;99.90;8.70;101505.00;;;;5033137;28;20222;-74
2022/11/05 08:56:40;;;;;;;1.03;1.03;;;8.80;99.90;9.30;101504.00;;;;5033160;28;20193;-73
2022/11/05 08:59:49;;;;;;;0.80;0.80;;;9.10;99.90;8.80;101512.00;;;;5027173;28;20226;-74
2022/11/05 09:02:40;;;;;;;0.30;0.30;;;9.00;99.90;9.00;101515.00;;;;5034608;28;20188;-74
2022/11/05 09:05:10;;;;;;;1.10;1.03;;;9.00;99.90;8.80;101516.00;;;;5035533;28;20185;-77
2022/11/05 09:07:54;;;;;;;0.50;0.50;;;9.00;99.90;9.10;101512.00;;;;5032674;28;20666;-74
2022/11/05 09:10:20;;;;;;;0.30;0.30;;;9.10;99.90;9.40;101465.00;;;;5032968;28;20188;-74
2022/11/05 09:12:46;;;;;;;0.30;0.30;;;9.20;99.90;9.20;101508.00;;;;5031471;28;20730;-73
2022/11/05 09:15:12;;;;;;;0.80;0.60;;;9.30;99.90;9.90;101495.00;;;;5002467;28;20222;-74
2022/11/05 09:17:40;;;;;;;0.50;0.50;;;9.40;99.90;9.30;101519.00;;;;5016266;28;20198;-69
2022/11/05 09:20:15;;;;;;;0.53;0.53;;;9.40;99.90;9.10;101471.00;;;;5047603;28;20183;-73
2022/11/05 09:22:45;;;;;;;0.80;0.80;;;9.30;99.90;9.40;101516.00;;;;5013709;28;20202;-76
2022/11/05 09:25:16;;;;;;;0.60;0.60;;;9.30;99.90;9.30;101525.00;;;;5014541;28;20182;-69
2022/11/05 09:27:43;;;;;;;0.70;0.70;;;9.50;99.90;9.30;101526.00;;;;5014432;28;20266;-72
2022/11/05 09:30:11;;;;;;;0.40;0.40;;;9.40;99.90;9.50;101522.00;;;;5013370;28;20185;-72
2022/11/05 09:32:37;;;;;;;1.13;1.03;;;9.40;99.90;9.80;101520.00;;;;5013110;28;20554;-71
2022/11/05 09:35:04;;;;;;;0.40;0.40;;;9.60;99.90;10.00;101523.00;;;;5012933;28;20180;-71
2022/11/05 09:37:30;;;;;;;0.70;0.70;;;9.70;99.90;10.20;101517.00;;;;5012845;28;20926;-72
2022/11/05 09:39:56;;;;;;;0.40;0.40;;;9.80;99.90;9.30;101520.00;;;;5013001;28;20212;-70
2022/11/05 09:42:34;;;;;;;0.73;0.73;;;9.60;99.90;9.50;101471.00;;;;5012822;28;20187;-70
2022/11/05 09:45:19;;;;;;;1.17;1.13;;;9.50;99.90;9.50;101521.00;;;;4997212;28;20172;-73
2022/11/05 09:48:00;;;;;;;1.30;1.30;;;9.50;99.90;9.70;101524.00;;;;5012707;28;20181;-72
2022/11/05 09:50:45;;;;;;;1.17;1.17;;;9.60;99.90;9.50;101471.00;;;;5013078;28;20749;-76
2022/11/05 09:53:39;;;;;;;0.50;0.50;;;9.60;99.90;9.30;101507.00;;;;5013988;28;20240;-68
2022/11/05 09:56:25;;;;;;;0.53;0.53;;;9.50;99.90;9.60;101526.00;;;;4996610;28;20642;-67
2022/11/05 09:59:21;;;;;;;0.80;0.80;;;9.60;99.90;9.50;101528.00;;;;5012919;28;20178;-72
2022/11/05 10:01:49;;;;;;;0.30;0.30;;;9.60;99.90;10.20;101539.00;;;;5013088;28;20167;-69
2022/11/05 10:04:26;;;;;;;0.30;0.30;;;9.80;99.90;10.30;101520.00;;;;5012759;28;20171;-68
2022/11/05 10:06:59;;;;;;;0.20;0.20;;;10.10;99.90;10.40;101501.00;;;;5012566;28;20241;-77
2022/11/05 10:09:44;;;;;;;1.03;1.03;;;10.10;99.90;10.70;101534.00;;;;4996227;28;20196;-70
2022/11/05 10:12:32;;;;;;;0.60;0.60;;;10.40;99.90;10.50;101532.00;;;;4996469;28;20204;-71
2022/11/05 10:15:39;;;;;;;0.27;0.27;;;10.30;99.90;10.00;101517.00;;;;5012453;28;20647;-73
2022/11/05 10:18:29;;;;;;;0.20;0.20;;;10.10;99.90;11.00;101527.00;;;;5012964;28;20638;-80
2022/11/05 10:33:52;;;;;;;0.63;0.63;;;10.50;99.90;10.50;101534.00;;;;5070615;28;20550;-69
2022/11/05 10:36:27;;;;;;;0.50;0.50;;;10.70;99.90;10.80;101527.00;;;;5065204;28;20240;-70
2022/11/05 10:39:18;;;;;;;1.33;1.23;;;10.80;99.90;10.90;101539.00;;;;5065735;28;20809;-72
2022/11/05 10:41:56;;;;;;;0.20;0.20;;;11.00;99.90;11.30;101538.00;;;;5065394;28;20179;-67
2022/11/05 10:44:29;;;;;;;0.40;0.40;;;11.10;99.90;11.00;101538.00;;;;5049570;28;20211;-71
2022/11/05 10:47:14;;;;;;;0.37;0.37;;;11.00;99.90;10.90;101540.00;;;;5050439;28;20626;-64
2022/11/05 10:50:02;;;;;;;0.50;0.50;;;11.00;99.90;11.10;101538.00;;;;5050406;28;20180;-73
2022/11/05 10:53:00;;;;;;;0.83;0.67;;;11.10;99.90;11.10;101530.00;;;;5050407;28;20224;-73
2022/11/05 10:55:35;;;;;;;0.50;0.50;;;11.20;99.90;10.90;101521.00;;;;5048734;28;20173;-73
2022/11/05 10:58:14;;;;;;;0.30;0.30;;;11.10;99.90;11.70;101536.00;;;;5048590;28;20640;-74
2022/11/05 11:00:44;;;;;;;0.30;0.30;;;11.30;99.90;10.80;101470.00;;;;5049767;28;20737;-74
2022/11/05 11:03:39;;;;;;;0.30;0.30;;;11.00;99.90;11.30;101527.00;;;;5048811;28;20194;-74
2022/11/05 11:06:28;;;;;;;0.40;0.40;;;11.10;99.90;11.40;101526.00;;;;5065427;28;20241;-70
2022/11/05 11:09:22;;;;;;;0.20;0.20;;;11.30;99.90;11.60;101538.00;;;;5048522;28;20179;-69
2022/11/05 11:12:12;;;;;;;0.20;0.20;;;11.50;99.90;11.80;101522.00;;;;5048605;28;20316;-64
2022/11/05 11:15:00;;;;;;;0.40;0.40;;;11.60;99.90;12.20;101537.00;;;;5064920;28;20639;-70
2022/11/05 11:17:38;;;;;;;0.67;0.67;;;11.90;99.90;12.00;101518.00;;;;5049264;28;20287;-70
2022/11/05 11:20:19;;;;;;;1.07;0.90;;;11.80;99.90;11.70;101480.00;;;;5048150;28;20195;-70
2022/11/05 11:23:14;;;;;;;0.20;0.20;;;11.80;99.90;11.70;101515.00;;;;5065161;28;20176;-69
2022/11/05 11:25:54;;;;;;;0.30;0.30;;;11.70;99.90;11.80;101485.00;;;;5064130;28;20180;-69
2022/11/05 11:28:31;;;;;;;2.53;2.43;;;11.70;99.90;12.30;101532.00;;;;5064671;28;20280;-70
2022/11/05 11:31:10;;;;;;;0.43;0.43;;;11.90;99.90;12.30;101524.00;;;;5064224;28;20175;-70
2022/11/05 11:33:40;;;;;;;0.50;0.50;;;11.90;99.90;11.70;101516.00;;;;5065007;28;20186;-69
2022/11/05 11:36:46;;;;;;;0.30;0.30;;;11.80;99.90;11.50;101501.00;;;;5063842;28;20188;-69
2022/11/05 11:40:23;;;;;;;0.63;0.60;;;11.70;99.90;11.70;101518.00;;;;5048155;28;20242;-70
2022/11/05 11:42:55;;;;;;;0.20;0.20;;;11.60;99.90;12.00;101532.00;;;;5045562;28;20226;-70
2022/11/05 11:46:18;;;;;;;0.53;0.30;;;11.80;99.90;11.40;101511.00;;;;5051072;28;20190;-70
2022/11/05 11:48:53;;;;;;;0.47;0.47;;;11.50;99.90;11.30;101506.00;;;;5033763;28;20187;-70
2022/11/05 11:51:39;;;;;;;0.43;0.43;;;11.40;99.90;11.50;101518.00;;;;5017033;28;20310;-70
2022/11/05 11:54:47;;;;;;;0.50;0.50;;;11.40;99.90;11.90;101466.00;;;;5033240;28;20283;-70
2022/11/05 11:58:06;;;;;;;0.20;0.20;;;11.70;99.90;11.80;101514.00;;;;5017874;28;20191;-69
2022/11/05 12:00:48;;;;;;;1.17;1.13;;;11.70;99.90;11.60;101498.00;;;;5021105;28;20242;-70
2022/11/05 12:03:44;;;;;;;0.40;0.40;;;11.60;99.90;11.50;101495.00;;;;5050939;28;20698;-70
2022/11/05 12:06:58;;;;;;;1.73;1.70;;;11.60;99.90;11.70;101496.00;;;;5035411;28;20528;-70
2022/11/05 12:09:40;;;;;;;0.30;0.30;;;11.60;99.90;12.50;101494.00;;;;5033681;28;20239;-70
2022/11/05 12:12:15;;;;;;;0.20;0.20;;;11.90;99.90;12.50;101488.00;;;;5035227;28;20254;-70
2022/11/05 12:14:52;;;;;;;0.30;0.30;;;12.00;99.90;12.10;101496.00;;;;5034515;28;20186;-70
2022/11/05 12:17:45;;;;;;;0.20;0.20;;;12.00;99.90;11.70;101489.00;;;;5035287;28;20203;-70
2022/11/05 12:20:13;;;;;;;0.20;0.20;;;11.70;99.90;11.90;101493.00;;;;5034919;28;20268;-70
2022/11/05 12:23:16;;;;;;;0.40;0.40;;;11.70;99.90;11.70;101483.00;;;;5034711;28;20652;-70
2022/11/05 12:26:00;;;;;;;0.70;0.70;;;11.60;99.90;11.50;101472.00;;;;5050679;28;20223;-70
2022/11/05 12:29:00;;;;;;;0.23;0.23;;;11.60;99.90;12.40;101483.00;;;;5050408;28;20698;-70
2022/11/05 12:31:51;;;;;;;0.60;0.60;;;11.80;99.90;12.50;101487.00;;;;5050222;28;20224;-70
2022/11/05 12:34:49;;;;;;;0.30;0.30;;;12.10;99.90;11.50;101478.00;;;;5033549;28;20181;-70
2022/11/05 12:37:36;;;;;;;0.50;0.50;;;11.70;99.90;11.50;101489.00;;;;5032519;28;20197;-70
2022/11/05 12:40:34;;;;;;;0.63;0.63;;;11.70;99.90;12.10;101487.00;;;;5033791;28;20272;-69
2022/11/05 12:43:37;;;;;;;0.93;0.93;;;11.80;99.90;11.70;101469.00;;;;5033435;28;20188;-70
2022/11/05 12:46:09;;;;;;;0.20;0.20;;;11.70;99.90;12.30;101431.00;;;;5033703;28;20172;-69
2022/11/05 12:48:45;;;;;;;0.77;0.77;;;12.00;99.90;12.40;101478.00;;;;5034620;28;20185;-70
2022/11/05 12:51:44;;;;;;;1.20;1.03;;;12.10;99.90;11.90;101473.00;;;;5024735;28;20551;-70
2022/11/05 12:54:33;;;;;;;2.37;1.13;;;11.90;99.90;12.10;101462.00;;;;5029149;28;20186;-70
2022/11/05 12:57:02;;;;;;;0.70;0.70;;;11.90;99.90;12.20;101463.00;;;;5049254;28;20188;-70
2022/11/05 13:00:07;;;;;;;0.57;0.40;;;12.10;99.90;11.90;101454.00;;;;5043672;28;20269;-70
2022/11/05 13:02:47;;;;;;;0.20;0.20;;;12.00;99.90;12.10;101453.00;;;;5014043;28;20190;-69
2022/11/05 13:05:24;;;;;;;0.60;0.60;;;11.80;99.90;11.80;101442.00;;;;5062211;28;20194;-69
2022/11/05 13:08:12;;;;;;;1.23;1.13;;;11.90;99.90;11.90;101444.00;;;;5031502;28;20720;-69
2022/11/05 13:11:20;;;;;;;2.63;0.60;;;11.90;99.90;11.90;101397.00;;;;5013057;28;20705;-70
2022/11/05 13:14:02;;;;;;;0.97;0.60;;;11.90;99.90;12.30;101443.00;;;;5013044;28;20205;-69
2022/11/05 13:16:32;;;;;;;0.50;0.50;;;12.10;99.90;11.80;101440.00;;;;5045888;28;20641;-70
2022/11/05 13:19:24;;;;;;;0.20;0.20;;;11.90;99.90;11.80;101446.00;;;;5013268;28;20177;-69
2022/11/05 13:22:06;;;;;;;1.63;1.53;;;11.90;99.90;12.10;101442.00;;;;5012484;28;20554;-69
2022/11/05 13:24:44;;;;;;;0.73;0.73;;;12.00;99.90;12.50;101425.00;;;;5016751;28;20220;-69
2022/11/05 13:27:51;;;;;;;0.67;0.67;;;12.20;99.90;12.50;101438.00;;;;5015588;28;20390;-70
2022/11/05 13:30:50;;;;;;;0.37;0.37;;;12.20;99.90;12.20;101437.00;;;;5018584;28;20188;-69
2022/11/05 13:33:39;;;;;;;0.97;0.70;;;12.20;99.90;12.20;101437.00;;;;5057685;28;20647;-69
2022/11/05 13:39:18;;;;;;;1.87;0.60;;;12.30;99.90;12.40;101432.00;;;;5041800;28;20200;-71
2022/11/05 13:42:17;;;;;;;0.40;0.40;;;12.30;99.90;12.00;101377.00;;;;5057183;28;20191;-71
2022/11/05 13:45:37;;;;;;;0.93;0.93;;;12.10;99.90;11.90;101424.00;;;;5042152;28;20644;-71
2022/11/05 13:48:18;;;;;;;0.60;0.60;;;11.90;99.90;12.60;101422.00;;;;5050969;28;20185;-71